Aviation Digital Data Service (ADDS)

Output produced by METARs form (0028 UTC 17 July 2019)
found at http://www.aviationweather.gov/metar/data/
 
Forecast for: LFRH (LORIENT/LANN BIH, FR)
Text: TAF LFRH 161700Z 1618/1718 25010KT CAVOK
Forecast period: 1800 to 2100 UTC 16 July 2019
Forecast type: FROM: standard forecast or significant change
Winds: from the WSW (250 degrees) at 12 MPH (10 knots; 5.1 m/s)
Visibility: 6 or more miles 10+ km)
Ceiling: unknown
Clouds: missing
Weather: NSW  (no significant weather)
Text: BECMG 1621/1623 35005KT
Forecast period: 2100 UTC 16 July 2019 to 1000 UTC 17 July 2019
Forecast type: BECOMING: Conditions expected to become as follows by 2300 UTC 16 July 2019
Winds: from the N (350 degrees) at 6 MPH (5 knots; 2.6 m/s)
Visibility: 6 or more miles 10+ km)
Ceiling: unknown
Clouds: missing
Weather: NSW  (no significant weather)
Text: BECMG 1710/1712 28010KT
Forecast period: 1000 to 1800 UTC 17 July 2019
Forecast type: BECOMING: Conditions expected to become as follows by 1200 UTC 17 July 2019
Winds: from the W (280 degrees) at 12 MPH (10 knots; 5.1 m/s)
Visibility: 6 or more miles 10+ km)
Ceiling: unknown
Clouds: missing
Weather: NSW  (no significant weather)